Time;durP1;ratioP1;P1;durP2;ratioP2;P2;SDS_P1;SDS_P2;PMS_P1;PMS_P2;Temp;Humidity;BMP_temperature;BMP_pressure;BME280_temperature;BME280_humidity;BME280_pressure;Samples;Min_cycle;Max_cycle;Signal;HPM_P1;HPM_P2
2024/02/16 00:00:46;;;;;;;14.73;6.10;;;;;;;9.29;100.00;100616.09;5094557;28;20482;-78
2024/02/16 00:03:19;;;;;;;12.90;5.90;;;;;;;9.21;100.00;100615.84;5099920;28;20427;-79
2024/02/16 00:05:48;;;;;;;13.25;5.80;;;;;;;9.21;100.00;100618.56;5095883;28;20486;-79
2024/02/16 00:08:21;;;;;;;12.93;5.80;;;;;;;9.23;100.00;100616.41;5098984;28;20426;-79
2024/02/16 00:10:56;;;;;;;11.55;5.93;;;;;;;9.17;100.00;100621.03;5095012;28;20765;-79
2024/02/16 00:13:24;;;;;;;12.68;5.78;;;;;;;9.14;100.00;100616.13;5092666;28;20793;-79
2024/02/16 00:15:58;;;;;;;12.20;5.87;;;;;;;9.11;100.00;100620.19;5095442;28;20428;-79
2024/02/16 00:18:26;;;;;;;12.10;5.50;;;;;;;9.16;100.00;100614.75;5110959;27;20431;-80
2024/02/16 00:20:59;;;;;;;14.20;6.00;;;;;;;9.14;100.00;100616.94;5100832;28;20427;-79
2024/02/16 00:23:27;;;;;;;15.35;6.40;;;;;;;9.21;100.00;100607.69;5096102;28;20425;-79
2024/02/16 00:26:07;;;;;;;13.50;6.00;;;;;;;9.09;100.00;100608.78;5092578;28;20889;-80
2024/02/16 00:28:41;;;;;;;11.55;5.78;;;;;;;9.06;100.00;100613.94;5128412;27;20420;-79
2024/02/16 00:31:15;;;;;;;10.60;5.73;;;;;;;8.97;100.00;100605.53;5095353;28;20439;-79
2024/02/16 00:33:43;;;;;;;12.45;5.90;;;;;;;9.02;100.00;100602.81;5108905;27;20799;-78
2024/02/16 00:36:16;;;;;;;15.45;5.80;;;;;;;9.00;100.00;100599.56;5098562;28;20431;-79
2024/02/16 00:38:46;;;;;;;10.82;5.75;;;;;;;9.09;100.00;100597.13;5110642;27;20979;-78
2024/02/16 00:41:23;;;;;;;14.02;6.55;;;;;;;8.98;100.00;100596.31;5094237;28;20417;-79
2024/02/16 00:43:57;;;;;;;14.55;5.85;;;;;;;9.02;100.00;100584.63;5097020;28;20452;-79
2024/02/16 00:46:31;;;;;;;13.18;6.25;;;;;;;9.05;100.00;100577.84;5096567;28;20429;-79
2024/02/16 00:49:00;;;;;;;13.63;5.90;;;;;;;8.95;100.00;100577.84;5094764;28;20455;-78
2024/02/16 00:51:33;;;;;;;11.35;5.78;;;;;;;8.94;100.00;100571.59;5095188;28;20519;-78
2024/02/16 00:54:01;;;;;;;11.65;5.82;;;;;;;8.92;100.00;100570.25;5095389;28;20415;-79
2024/02/16 00:56:36;;;;;;;14.23;5.70;;;;;;;8.93;100.00;100555.59;5097281;28;20432;-79
2024/02/16 00:59:09;;;;;;;12.90;5.47;;;;;;;8.97;100.00;100565.63;5109093;28;20527;-78
2024/02/16 01:01:43;;;;;;;11.20;5.40;;;;;;;8.91;100.00;100564.00;5099512;28;20425;-78
2024/02/16 01:04:11;;;;;;;14.10;5.57;;;;;;;8.96;100.00;100565.91;5093450;28;20416;-78
2024/02/16 01:06:44;;;;;;;12.25;5.68;;;;;;;9.06;100.00;100552.34;5098516;28;20418;-79
2024/02/16 01:09:17;;;;;;;11.95;5.25;;;;;;;9.05;100.00;100556.13;5098291;28;20872;-78
2024/02/16 01:11:47;;;;;;;14.18;5.68;;;;;;;9.07;100.00;100545.00;5094821;28;20422;-78
2024/02/16 01:14:20;;;;;;;12.30;5.57;;;;;;;9.06;100.00;100546.91;5095843;28;20423;-79
2024/02/16 01:16:53;;;;;;;12.30;5.73;;;;;;;9.07;100.00;100539.56;5095577;28;20423;-78
2024/02/16 01:19:26;;;;;;;11.45;5.40;;;;;;;9.12;100.00;100536.84;5093230;28;20448;-79
2024/02/16 01:22:00;;;;;;;13.45;5.20;;;;;;;9.06;100.00;100530.63;5100951;28;20416;-79
2024/02/16 01:24:33;;;;;;;11.38;5.22;;;;;;;9.10;100.00;100525.44;5094948;28;20448;-78
2024/02/16 01:27:03;;;;;;;10.57;5.10;;;;;;;9.00;100.00;100528.97;5093787;28;20411;-78
2024/02/16 01:29:32;;;;;;;13.50;5.43;;;;;;;9.02;100.00;100529.53;5109680;28;20413;-79
2024/02/16 01:32:05;;;;;;;9.30;4.85;;;;;;;8.94;100.00;100530.88;5093064;28;20412;-78
2024/02/16 01:34:39;;;;;;;11.32;4.88;;;;;;;8.90;100.00;100531.72;5094107;28;20428;-78
2024/02/16 01:37:12;;;;;;;11.00;5.13;;;;;;;8.83;100.00;100521.94;5098610;28;20435;-77
2024/02/16 01:39:46;;;;;;;12.88;5.50;;;;;;;8.84;100.00;100518.13;5096749;28;21120;-79
2024/02/16 01:42:21;;;;;;;11.45;5.32;;;;;;;8.86;100.00;100523.28;5102339;28;20428;-80
2024/02/16 01:44:54;;;;;;;12.60;5.13;;;;;;;8.79;100.00;100517.34;5102062;28;20439;-78
2024/02/16 01:47:27;;;;;;;15.23;5.13;;;;;;;8.78;100.00;100511.09;5095542;28;20424;-79
2024/02/16 01:50:01;;;;;;;11.20;5.03;;;;;;;8.83;100.00;100523.84;5098140;28;20751;-78
2024/02/16 01:52:36;;;;;;;12.77;5.10;;;;;;;8.83;100.00;100523.84;5099283;27;20420;-78
2024/02/16 01:55:10;;;;;;;11.07;5.27;;;;;;;8.74;100.00;100523.59;5097795;28;20517;-78
2024/02/16 01:57:46;;;;;;;9.98;4.93;;;;;;;8.76;100.00;100526.81;5127889;27;20425;-78
2024/02/16 02:00:17;;;;;;;10.57;5.03;;;;;;;8.79;100.00;100523.56;5097583;28;20435;-78
2024/02/16 02:02:51;;;;;;;10.18;5.20;;;;;;;8.77;100.00;100530.34;5099683;28;20884;-78
2024/02/16 02:05:24;;;;;;;11.88;5.07;;;;;;;8.78;100.00;100534.69;5097519;28;20426;-78
2024/02/16 02:07:52;;;;;;;12.00;4.82;;;;;;;8.77;100.00;100531.19;5095083;28;20431;-79
2024/02/16 02:10:26;;;;;;;13.95;5.32;;;;;;;8.74;100.00;100529.00;5098843;28;20437;-79
2024/02/16 02:13:01;;;;;;;12.63;5.23;;;;;;;8.72;100.00;100525.75;5130753;27;20420;-78
2024/02/16 02:15:34;;;;;;;11.25;5.43;;;;;;;8.66;100.00;100513.28;5098978;28;20899;-79
2024/02/16 02:18:02;;;;;;;12.10;5.15;;;;;;;8.65;100.00;100509.72;5106798;27;20439;-79
2024/02/16 02:20:36;;;;;;;10.75;5.25;;;;;;;8.64;100.00;100505.38;5099961;28;20421;-79
2024/02/16 02:23:10;;;;;;;9.55;5.03;;;;;;;8.56;100.00;100505.13;5096320;28;20419;-79
2024/02/16 02:25:44;;;;;;;11.32;5.70;;;;;;;8.62;100.00;100509.47;5098216;28;20412;-79
2024/02/16 02:28:17;;;;;;;11.15;5.38;;;;;;;8.66;100.00;100505.13;5097090;28;20424;-78
2024/02/16 02:30:47;;;;;;;13.63;5.87;;;;;;;8.60;100.00;100498.06;5095216;28;20449;-78
2024/02/16 02:33:20;;;;;;;9.53;5.13;;;;;;;8.59;100.00;100499.97;5100777;28;20425;-78
2024/02/16 02:35:53;;;;;;;10.65;5.28;;;;;;;8.56;100.00;100489.69;5095735;28;20431;-78
2024/02/16 02:38:28;;;;;;;11.52;5.45;;;;;;;8.57;100.00;100482.34;5101414;27;20434;-79
2024/02/16 02:40:56;;;;;;;10.77;5.13;;;;;;;8.54;100.00;100474.75;5097243;28;20449;-78
2024/02/16 02:43:29;;;;;;;12.23;5.50;;;;;;;8.56;100.00;100475.28;5097559;28;20420;-78
2024/02/16 02:46:03;;;;;;;10.90;5.50;;;;;;;8.53;100.00;100468.50;5096410;27;20412;-78
2024/02/16 02:48:36;;;;;;;11.15;5.10;;;;;;;8.59;100.00;100464.72;5097042;28;20425;-78
2024/02/16 02:51:04;;;;;;;10.32;5.18;;;;;;;8.60;100.00;100466.31;5096584;28;20884;-78
2024/02/16 02:53:34;;;;;;;14.68;5.80;;;;;;;8.57;100.00;100468.78;5097978;28;20425;-78
2024/02/16 02:56:07;;;;;;;12.00;5.40;;;;;;;8.57;100.00;100458.72;5112640;27;20452;-78
2024/02/16 02:58:40;;;;;;;10.10;5.40;;;;;;;8.59;100.00;100461.16;5095013;28;20420;-79
2024/02/16 03:01:14;;;;;;;10.60;5.30;;;;;;;8.61;100.00;100462.53;5096512;28;20477;-78
2024/02/16 03:03:42;;;;;;;10.27;5.50;;;;;;;8.56;100.00;100459.00;5094147;28;20408;-79
2024/02/16 03:06:18;;;;;;;12.90;5.75;;;;;;;8.57;100.00;100450.59;5095802;28;20797;-78
2024/02/16 03:08:53;;;;;;;11.90;5.70;;;;;;;8.55;100.00;100444.63;5099867;27;20426;-78
2024/02/16 03:11:21;;;;;;;13.88;6.20;;;;;;;8.54;100.00;100443.00;5096299;28;20412;-78
2024/02/16 03:13:54;;;;;;;13.88;5.88;;;;;;;8.58;100.00;100437.88;5095226;28;20427;-78
2024/02/16 03:16:22;;;;;;;13.90;5.90;;;;;;;8.55;100.00;100439.22;5111755;27;20427;-78
2024/02/16 03:18:56;;;;;;;13.47;5.87;;;;;;;8.53;100.00;100441.38;5095845;28;20950;-79
2024/02/16 03:21:29;;;;;;;12.45;5.88;;;;;;;8.53;100.00;100443.28;5094856;28;20439;-78
2024/02/16 03:24:04;;;;;;;14.00;5.97;;;;;;;8.45;100.00;100437.31;5096559;28;20400;-79
2024/02/16 03:26:33;;;;;;;12.40;5.87;;;;;;;8.49;100.00;100437.56;5097197;28;20425;-78
2024/02/16 03:29:06;;;;;;;11.95;5.60;;;;;;;8.48;100.00;100444.09;5099548;28;20441;-78
2024/02/16 03:31:40;;;;;;;12.65;5.78;;;;;;;8.44;100.00;100438.38;5095201;28;20426;-79
2024/02/16 03:34:13;;;;;;;13.60;6.20;;;;;;;8.43;100.00;100435.94;5095005;27;20428;-78
2024/02/16 03:36:46;;;;;;;13.00;5.75;;;;;;;8.42;100.00;100437.00;5096896;27;20918;-78
2024/02/16 03:39:21;;;;;;;9.65;5.68;;;;;;;8.38;100.00;100436.72;5100528;27;20409;-79
2024/02/16 03:41:55;;;;;;;11.57;6.25;;;;;;;8.37;100.00;100426.16;5101418;28;20449;-78
2024/02/16 03:44:28;;;;;;;11.43;5.85;;;;;;;8.35;100.00;100423.72;5091581;28;20420;-78
2024/02/16 03:47:02;;;;;;;11.60;6.18;;;;;;;8.39;100.00;100422.09;5096447;28;20429;-79
2024/02/16 03:49:35;;;;;;;9.93;6.00;;;;;;;8.37;100.00;100410.72;5095354;28;20422;-77
2024/02/16 03:52:08;;;;;;;11.10;5.80;;;;;;;8.42;100.00;100407.97;5100357;28;20427;-78
2024/02/16 03:54:43;;;;;;;10.48;5.40;;;;;;;8.39;100.00;100402.31;5097711;28;20427;-78
2024/02/16 03:57:12;;;;;;;13.60;5.90;;;;;;;8.38;100.00;100401.47;5097447;28;20422;-78
2024/02/16 03:59:40;;;;;;;10.73;5.57;;;;;;;8.39;100.00;100396.88;5094017;27;20421;-78
2024/02/16 04:02:14;;;;;;;15.05;5.78;;;;;;;8.38;100.00;100397.97;5129519;27;21129;-78
2024/02/16 04:04:42;;;;;;;13.97;5.73;;;;;;;8.34;100.00;100394.97;5094779;28;21029;-78
2024/02/16 04:07:17;;;;;;;11.32;5.80;;;;;;;8.35;100.00;100393.88;5107890;27;20427;-78
2024/02/16 04:09:46;;;;;;;11.02;5.53;;;;;;;8.48;100.00;100387.16;5096554;27;20737;-78
2024/02/16 04:12:20;;;;;;;11.23;5.63;;;;;;;8.40;100.00;100395.81;5096935;28;20494;-78
2024/02/16 04:14:48;;;;;;;12.43;5.60;;;;;;;8.40;100.00;100391.19;5094880;28;20433;-78
2024/02/16 04:17:21;;;;;;;11.27;5.77;;;;;;;8.41;100.00;100392.00;5097942;28;20423;-79
2024/02/16 04:19:54;;;;;;;10.35;5.72;;;;;;;8.39;100.00;100386.84;5094929;28;20432;-77
2024/02/16 04:22:28;;;;;;;12.02;5.57;;;;;;;8.45;100.00;100379.53;5094926;28;20614;-78
2024/02/16 04:25:03;;;;;;;13.30;5.53;;;;;;;8.43;100.00;100385.22;5094996;28;20412;-78
2024/02/16 04:27:32;;;;;;;9.52;5.13;;;;;;;8.44;100.00;100394.97;5095315;28;20423;-79
2024/02/16 04:30:06;;;;;;;11.60;5.47;;;;;;;8.38;100.00;100398.75;5094149;28;20449;-78
2024/02/16 04:32:35;;;;;;;16.17;5.60;;;;;;;8.45;100.00;100401.22;5110291;27;21834;-78
2024/02/16 04:35:11;;;;;;;10.43;5.38;;;;;;;8.38;100.00;100403.38;5095419;28;20428;-78
2024/02/16 04:37:40;;;;;;;10.40;5.13;;;;;;;8.48;100.00;100389.88;5125792;27;20435;-78
2024/02/16 04:40:15;;;;;;;10.93;5.22;;;;;;;8.38;100.00;100400.69;5110780;27;20420;-77
2024/02/16 04:42:48;;;;;;;10.60;5.18;;;;;;;8.36;100.00;100400.16;5108686;27;20427;-78
2024/02/16 04:45:22;;;;;;;10.30;5.55;;;;;;;8.38;100.00;100392.53;5109686;27;20461;-78
2024/02/16 04:47:55;;;;;;;12.52;5.53;;;;;;;8.33;100.00;100386.03;5098687;28;20423;-77
2024/02/16 04:50:28;;;;;;;10.82;5.38;;;;;;;8.29;100.00;100386.84;5094432;28;20884;-78
2024/02/16 04:53:02;;;;;;;11.50;5.50;;;;;;;8.30;100.00;100394.72;5093355;28;20857;-77
2024/02/16 04:55:37;;;;;;;10.18;5.40;;;;;;;8.26;100.00;100396.34;5093025;28;20433;-78
2024/02/16 04:58:10;;;;;;;12.18;5.72;;;;;;;8.29;100.00;100381.44;5094450;28;20908;-78
2024/02/16 05:00:46;;;;;;;9.73;5.45;;;;;;;8.27;100.00;100392.56;5096323;28;20435;-77
2024/02/16 05:03:19;;;;;;;10.75;5.93;;;;;;;8.32;100.00;100389.81;5095418;28;20408;-77
2024/02/16 05:05:53;;;;;;;10.88;5.70;;;;;;;8.33;100.00;100385.22;5090377;28;20424;-78
2024/02/16 05:08:26;;;;;;;11.90;5.70;;;;;;;8.34;100.00;100389.53;5095921;28;20911;-78
2024/02/16 05:11:02;;;;;;;12.38;5.50;;;;;;;8.32;100.00;100387.09;5093054;28;20445;-78
2024/02/16 05:13:36;;;;;;;12.80;5.50;;;;;;;8.34;100.00;100384.97;5097035;28;20428;-77
2024/02/16 05:16:09;;;;;;;13.05;5.38;;;;;;;8.30;100.00;100388.47;5100696;28;20417;-77
2024/02/16 05:18:37;;;;;;;11.52;5.63;;;;;;;8.27;100.00;100391.72;5099877;27;20412;-78
2024/02/16 05:21:05;;;;;;;10.85;5.20;;;;;;;8.31;100.00;100387.38;5102436;28;20784;-78
2024/02/16 05:23:39;;;;;;;11.18;5.00;;;;;;;8.26;100.00;100377.38;5112190;27;20428;-78
2024/02/16 05:26:13;;;;;;;11.10;5.53;;;;;;;8.23;100.00;100377.91;5098925;28;20424;-78
2024/02/16 05:28:47;;;;;;;11.23;5.47;;;;;;;8.30;100.00;100381.16;5098063;28;22288;-78
2024/02/16 05:31:20;;;;;;;10.65;5.10;;;;;;;8.23;100.00;100382.50;5097182;28;20423;-78
2024/02/16 05:33:54;;;;;;;10.10;5.20;;;;;;;8.20;100.00;100383.84;5100280;28;20927;-78
2024/02/16 05:36:30;;;;;;;10.98;5.32;;;;;;;8.22;100.00;100389.03;5099135;28;21721;-77
2024/02/16 05:39:19;;;;;;;11.48;5.20;;;;;;;8.21;100.00;100380.06;5099983;27;21282;-78
2024/02/16 05:41:54;;;;;;;9.73;5.27;;;;;;;8.21;100.00;100373.84;5098532;28;20419;-78
2024/02/16 05:44:27;;;;;;;12.23;5.20;;;;;;;8.25;100.00;100369.50;5098878;28;20530;-78
2024/02/16 05:46:55;;;;;;;9.40;5.00;;;;;;;8.23;100.00;100372.50;5100174;28;20435;-77
2024/02/16 05:49:30;;;;;;;10.68;5.03;;;;;;;8.23;100.00;100369.78;5097287;28;20419;-78
2024/02/16 05:54:44;;;;;;;11.73;5.07;;;;;;;8.20;100.00;100373.00;5097584;28;20414;-77
2024/02/16 05:57:18;;;;;;;9.18;4.68;;;;;;;8.29;100.00;100373.31;5099020;28;20420;-78
2024/02/16 05:59:52;;;;;;;11.23;4.95;;;;;;;8.19;100.00;100379.53;5097490;27;20432;-78
2024/02/16 06:02:25;;;;;;;10.27;4.80;;;;;;;8.23;100.00;100377.91;5092758;28;20416;-77
2024/02/16 06:04:54;;;;;;;10.40;4.82;;;;;;;8.29;100.00;100368.69;5096034;28;20418;-78
2024/02/16 06:07:27;;;;;;;8.45;4.70;;;;;;;8.27;100.00;100370.03;5097014;28;20432;-79
2024/02/16 06:10:04;;;;;;;10.65;5.13;;;;;;;8.28;100.00;100366.25;5097249;27;20423;-78
2024/02/16 06:12:33;;;;;;;10.27;4.50;;;;;;;8.24;100.00;100362.44;5098855;28;21119;-78
2024/02/16 06:15:07;;;;;;;10.95;4.63;;;;;;;8.24;100.00;100363.25;5096187;28;20428;-78
2024/02/16 06:17:40;;;;;;;10.25;4.88;;;;;;;8.25;100.00;100364.88;5099095;27;20420;-78
2024/02/16 06:20:11;;;;;;;8.80;4.78;;;;;;;8.22;100.00;100362.72;5096638;28;20431;-78
2024/02/16 06:22:39;;;;;;;10.60;4.80;;;;;;;8.20;100.00;100364.09;5098343;28;20924;-78
2024/02/16 06:25:12;;;;;;;10.00;4.97;;;;;;;8.21;100.00;100365.72;5096645;28;20439;-77
2024/02/16 06:27:42;;;;;;;11.07;4.45;;;;;;;8.26;100.00;100363.81;5096326;27;20424;-78
2024/02/16 06:30:15;;;;;;;11.02;4.75;;;;;;;8.20;100.00;100370.31;5098601;27;21377;-78
2024/02/16 06:32:48;;;;;;;9.18;4.55;;;;;;;8.23;100.00;100372.50;5099078;28;20426;-77
2024/02/16 06:35:17;;;;;;;8.88;4.90;;;;;;;8.23;100.00;100379.78;5100179;28;20766;-78
2024/02/16 06:37:45;;;;;;;10.57;4.45;;;;;;;8.31;100.00;100382.78;5099789;28;20427;-77
2024/02/16 06:40:14;;;;;;;7.63;4.20;;;;;;;8.24;100.00;100384.94;5131935;27;20422;-79
2024/02/16 06:42:48;;;;;;;8.55;4.20;;;;;;;8.12;100.00;100379.81;5098867;28;20416;-78
2024/02/16 06:45:16;;;;;;;13.27;4.67;;;;;;;8.15;100.00;100375.75;5097361;28;20413;-78
2024/02/16 06:47:50;;;;;;;10.55;4.70;;;;;;;8.22;100.00;100378.19;5097395;28;20418;-77
2024/02/16 06:50:18;;;;;;;10.68;4.57;;;;;;;8.24;100.00;100386.84;5101677;28;20425;-77
2024/02/16 06:52:46;;;;;;;10.85;4.07;;;;;;;8.21;100.00;100384.69;5100511;28;20434;-78
2024/02/16 06:55:19;;;;;;;9.38;4.30;;;;;;;8.18;100.00;100383.34;5096877;28;20420;-78
2024/02/16 06:57:49;;;;;;;9.52;4.30;;;;;;;8.11;100.00;100371.94;5100722;27;20423;-78
2024/02/16 07:00:19;;;;;;;8.60;4.43;;;;;;;8.13;100.00;100373.31;5098851;27;20473;-77
2024/02/16 07:02:53;;;;;;;8.30;4.22;;;;;;;8.12;100.00;100377.09;5098369;28;20414;-78
2024/02/16 07:05:27;;;;;;;10.10;4.43;;;;;;;8.19;100.00;100379.53;5098519;28;20757;-78
2024/02/16 07:08:01;;;;;;;8.23;3.90;;;;;;;8.19;100.00;100376.84;5098547;28;20420;-78
2024/02/16 07:10:34;;;;;;;10.10;3.95;;;;;;;8.26;100.00;100379.25;5100312;27;20423;-78
2024/02/16 07:13:04;;;;;;;9.27;4.03;;;;;;;8.31;100.00;100382.78;5109532;27;20434;-78
2024/02/16 07:15:37;;;;;;;9.32;4.28;;;;;;;8.30;100.00;100386.59;5095665;28;21042;-78
2024/02/16 07:18:10;;;;;;;7.97;4.20;;;;;;;8.36;100.00;100387.38;5096703;28;20480;-78
2024/02/16 07:20:44;;;;;;;7.30;3.75;;;;;;;8.40;100.00;100376.81;5102102;28;20931;-78
2024/02/16 07:23:17;;;;;;;7.90;3.72;;;;;;;8.33;100.00;100380.59;5101054;28;20424;-78
2024/02/16 07:25:50;;;;;;;7.35;3.90;;;;;;;8.36;100.00;100378.47;5101365;27;20801;-78
2024/02/16 07:28:26;;;;;;;9.35;4.00;;;;;;;8.44;100.00;100376.00;5105226;28;20404;-78
2024/02/16 07:30:54;;;;;;;9.10;3.85;;;;;;;8.44;100.00;100376.00;5109815;27;20779;-78
2024/02/16 07:33:28;;;;;;;7.18;3.97;;;;;;;8.46;100.00;100386.59;5098018;28;20416;-79
2024/02/16 07:36:01;;;;;;;8.90;3.70;;;;;;;8.44;100.00;100377.91;5098300;27;20431;-78
2024/02/16 07:38:34;;;;;;;9.35;3.95;;;;;;;8.42;100.00;100388.19;5100381;27;20435;-78
2024/02/16 07:41:07;;;;;;;9.77;4.40;;;;;;;8.48;100.00;100387.97;5098727;28;20533;-78
2024/02/16 07:43:42;;;;;;;9.15;4.10;;;;;;;8.49;100.00;100388.75;5095715;28;20425;-78
2024/02/16 07:46:15;;;;;;;7.85;3.60;;;;;;;8.43;100.00;100392.53;5099365;27;20418;-78
2024/02/16 07:48:47;;;;;;;8.80;3.45;;;;;;;8.47;100.00;100386.31;5095828;27;20432;-78
2024/02/16 07:51:15;;;;;;;9.50;3.90;;;;;;;8.53;100.00;100386.31;5097370;28;20428;-78
2024/02/16 07:53:46;;;;;;;8.95;3.67;;;;;;;8.43;100.00;100392.53;5090403;28;21151;-79
2024/02/16 07:56:15;;;;;;;9.15;3.60;;;;;;;8.47;100.00;100388.22;5082930;27;20942;-79
2024/02/16 07:58:45;;;;;;;9.93;3.60;;;;;;;8.38;100.00;100392.53;5072998;27;20435;-79
2024/02/16 08:01:20;;;;;;;10.02;3.78;;;;;;;8.33;100.00;100387.94;5082699;27;20435;-79
2024/02/16 08:03:55;;;;;;;7.38;3.50;;;;;;;8.39;100.00;100396.88;5094725;27;20436;-79
2024/02/16 08:06:28;;;;;;;9.15;3.63;;;;;;;8.51;100.00;100381.19;5070195;28;20415;-78
2024/02/16 08:09:02;;;;;;;7.07;3.38;;;;;;;8.54;100.00;100386.03;5067870;28;20416;-78
2024/02/16 08:11:35;;;;;;;7.05;3.30;;;;;;;8.73;100.00;100385.47;5078283;28;20424;-78
2024/02/16 08:14:09;;;;;;;7.85;3.40;;;;;;;8.84;100.00;100389.81;5080330;27;21207;-78
2024/02/16 08:16:43;;;;;;;7.22;3.60;;;;;;;8.93;100.00;100384.59;5074544;28;21074;-79
2024/02/16 08:19:13;;;;;;;7.32;3.40;;;;;;;8.96;100.00;100382.16;5069518;27;21619;-78
2024/02/16 08:21:46;;;;;;;8.23;3.70;;;;;;;9.06;100.00;100383.19;5080143;27;20426;-78
2024/02/16 08:24:20;;;;;;;7.57;3.22;;;;;;;9.14;100.00;100385.34;5076895;27;20776;-78
2024/02/16 08:26:53;;;;;;;8.25;3.40;;;;;;;9.11;100.00;100386.72;5068616;28;21395;-79
2024/02/16 08:29:28;;;;;;;6.93;3.28;;;;;;;9.14;100.00;100383.47;5088808;27;20432;-78
2024/02/16 08:32:03;;;;;;;7.05;3.25;;;;;;;9.23;100.00;100383.69;5064432;28;20448;-79
2024/02/16 08:34:37;;;;;;;7.85;3.40;;;;;;;9.30;100.00;100380.69;5064062;28;20427;-78
2024/02/16 08:37:06;;;;;;;7.40;3.10;;;;;;;9.27;100.00;100378.53;5074978;28;21285;-79
2024/02/16 08:39:41;;;;;;;8.18;3.47;;;;;;;9.30;100.00;100381.47;5078106;28;20427;-78
2024/02/16 08:42:11;;;;;;;7.13;3.40;;;;;;;9.34;100.00;100379.03;5084636;28;21237;-78
2024/02/16 08:44:46;;;;;;;8.32;3.63;;;;;;;9.30;100.00;100369.81;5064306;28;22441;-79
2024/02/16 08:47:20;;;;;;;7.88;3.08;;;;;;;9.36;100.00;100368.69;5058691;28;20422;-78
2024/02/16 08:49:53;;;;;;;7.70;3.67;;;;;;;9.41;100.00;100362.44;5049754;28;20422;-78
2024/02/16 08:52:22;;;;;;;7.47;3.33;;;;;;;9.54;100.00;100359.09;5069138;28;20416;-78
2024/02/16 08:54:50;;;;;;;7.50;3.20;;;;;;;9.62;100.00;100357.69;5089906;28;20451;-78
2024/02/16 08:57:23;;;;;;;8.45;3.60;;;;;;;9.66;100.00;100361.47;5070760;28;20424;-78
2024/02/16 08:59:53;;;;;;;9.13;3.40;;;;;;;9.80;100.00;100348.84;5079959;28;20903;-78
2024/02/16 09:02:22;;;;;;;7.43;3.20;;;;;;;9.85;100.00;100348.84;5080252;28;20431;-78
2024/02/16 09:04:55;;;;;;;7.72;3.30;;;;;;;9.84;100.00;100352.63;5076700;28;20435;-78
2024/02/16 09:07:29;;;;;;;6.93;3.13;;;;;;;9.74;100.00;100350.00;5071154;28;20428;-78
2024/02/16 09:10:02;;;;;;;8.98;3.53;;;;;;;9.74;100.00;100357.34;5074220;28;20424;-78
2024/02/16 09:12:30;;;;;;;8.15;3.30;;;;;;;9.74;100.00;100360.88;5073802;28;20421;-79
2024/02/16 09:15:00;;;;;;;8.20;3.10;;;;;;;9.83;100.00;100358.34;5072813;28;21756;-78
2024/02/16 09:17:28;;;;;;;9.43;3.20;;;;;;;9.90;100.00;100358.84;5077839;28;20420;-78
2024/02/16 09:20:04;;;;;;;7.07;2.95;;;;;;;9.92;100.00;100355.88;5077607;28;21413;-78
2024/02/16 09:22:37;;;;;;;7.43;3.10;;;;;;;9.97;100.00;100358.53;5076283;28;20431;-78
2024/02/16 09:25:10;;;;;;;5.93;2.80;;;;;;;9.99;100.00;100346.28;5073290;28;20427;-78
2024/02/16 09:27:44;;;;;;;5.87;3.03;;;;;;;9.94;100.00;100356.38;5079050;28;20424;-78
2024/02/16 09:30:21;;;;;;;6.65;2.95;;;;;;;10.02;100.00;100361.22;5072075;28;20416;-79
2024/02/16 09:32:49;;;;;;;6.33;2.77;;;;;;;9.95;100.00;100358.00;5070085;28;21839;-78
2024/02/16 09:35:17;;;;;;;6.75;2.83;;;;;;;9.99;100.00;100364.50;5077419;28;20429;-78
2024/02/16 09:37:51;;;;;;;7.20;2.90;;;;;;;10.17;100.00;100365.72;5075090;28;20498;-78
2024/02/16 09:40:20;;;;;;;8.07;3.03;;;;;;;10.24;100.00;100363.47;5070649;28;20475;-78
2024/02/16 09:42:53;;;;;;;8.40;2.95;;;;;;;10.27;100.00;100367.53;5074634;28;20436;-78
2024/02/16 09:45:29;;;;;;;7.88;3.08;;;;;;;10.28;100.00;100367.25;5073070;28;20427;-78
2024/02/16 09:47:59;;;;;;;9.35;3.00;;;;;;;10.38;100.00;100358.22;5071324;28;22258;-78
2024/02/16 09:50:32;;;;;;;6.20;2.80;;;;;;;10.36;100.00;100365.88;5072720;28;20431;-78
2024/02/16 09:53:04;;;;;;;9.13;2.90;;;;;;;10.45;100.00;100361.41;5080843;28;20427;-78
2024/02/16 09:55:37;;;;;;;7.60;2.90;;;;;;;10.54;100.00;100353.44;5080972;28;20437;-78
2024/02/16 09:58:06;;;;;;;5.30;2.65;;;;;;;10.61;100.00;100367.53;5064884;28;20428;-78
2024/02/16 10:00:40;;;;;;;5.70;2.78;;;;;;;10.68;100.00;100368.00;5078125;28;20424;-78
2024/02/16 10:03:10;;;;;;;5.35;2.60;;;;;;;10.55;100.00;100365.97;5077907;28;20420;-79
2024/02/16 10:05:43;;;;;;;5.17;2.57;;;;;;;10.67;100.00;100368.28;5080843;28;20444;-78
2024/02/16 10:08:13;;;;;;;7.90;2.95;;;;;;;10.69;100.00;100374.25;5076014;27;20432;-79
2024/02/16 10:10:41;;;;;;;7.47;2.90;;;;;;;10.89;100.00;100368.56;5103100;27;20435;-78
2024/02/16 10:13:27;;;;;;;6.78;2.70;;;;;;;10.93;100.00;100370.75;5074154;28;20514;-79
2024/02/16 10:16:11;;;;;;;8.27;2.83;;;;;;;11.01;100.00;100379.06;5067976;27;20426;-78
2024/02/16 10:18:44;;;;;;;6.28;2.40;;;;;;;11.11;100.00;100380.84;5073151;28;20439;-78
2024/02/16 10:21:26;;;;;;;5.63;2.70;;;;;;;11.08;100.00;100375.19;5071474;28;20886;-78
2024/02/16 10:24:02;;;;;;;6.82;2.60;;;;;;;11.12;100.00;100379.75;5080555;28;20428;-78
2024/02/16 10:26:37;;;;;;;5.35;2.60;;;;;;;11.15;100.00;100376.44;5071077;28;20424;-78
2024/02/16 10:29:11;;;;;;;5.40;2.50;;;;;;;11.26;100.00;100376.34;5071545;27;20994;-80
2024/02/16 10:31:42;;;;;;;6.80;2.35;;;;;;;11.22;100.00;100371.44;5072720;27;20416;-78
2024/02/16 10:34:11;;;;;;;5.70;2.22;;;;;;;11.27;100.00;100376.03;5072847;28;20433;-78
2024/02/16 10:36:45;;;;;;;9.33;2.47;;;;;;;11.28;100.00;100376.84;5082632;28;20428;-78
2024/02/16 10:39:13;;;;;;;6.30;2.50;;;;;;;11.50;100.00;100379.00;5083992;28;20446;-79
2024/02/16 10:41:42;;;;;;;5.85;2.50;;;;;;;11.55;100.00;100368.03;5074426;28;20420;-80
2024/02/16 10:44:16;;;;;;;6.30;2.75;;;;;;;11.68;100.00;100369.22;5083049;28;20416;-79
2024/02/16 10:46:51;;;;;;;6.93;2.28;;;;;;;11.76;100.00;100373.22;5080315;28;20424;-78
2024/02/16 10:49:19;;;;;;;9.63;2.60;;;;;;;11.89;100.00;100367.00;5061759;28;21063;-78
2024/02/16 10:51:53;;;;;;;5.65;2.35;;;;;;;11.85;100.00;100372.25;5062374;28;20436;-78
2024/02/16 10:54:32;;;;;;;4.82;2.30;;;;;;;11.97;100.00;100365.53;5054234;28;21861;-78
2024/02/16 10:57:09;;;;;;;4.78;2.10;;;;;;;12.01;100.00;100378.28;5073855;27;20464;-78
2024/02/16 10:59:44;;;;;;;6.97;2.30;;;;;;;12.02;100.00;100376.38;5091606;27;20443;-78
2024/02/16 11:02:18;;;;;;;6.72;2.50;;;;;;;12.11;100.00;100377.34;5075898;28;20439;-78
2024/02/16 11:04:53;;;;;;;5.53;2.30;;;;;;;12.15;100.00;100378.38;5082678;28;20427;-78
2024/02/16 11:07:39;;;;;;;5.28;2.25;;;;;;;12.19;100.00;100370.38;5077204;28;20436;-78
2024/02/16 11:10:14;;;;;;;5.15;1.95;;;;;;;12.34;100.00;100372.03;5082728;28;20466;-78
2024/02/16 11:12:47;;;;;;;6.13;2.22;;;;;;;12.37;100.00;100368.72;5080169;28;20421;-78
2024/02/16 11:15:28;;;;;;;5.63;2.33;;;;;;;12.29;100.00;100374.84;5076498;28;20459;-79
2024/02/16 11:18:05;;;;;;;4.43;2.00;;;;;;;12.21;100.00;100373.63;5076096;28;20455;-78
2024/02/16 11:20:39;;;;;;;4.93;2.30;;;;;;;12.17;100.00;100376.13;5079373;28;20424;-79
2024/02/16 11:23:09;;;;;;;6.63;2.33;;;;;;;12.16;100.00;100379.16;5091289;27;20428;-78
2024/02/16 11:25:38;;;;;;;6.60;2.30;;;;;;;11.93;100.00;100381.66;5077758;28;20424;-78
2024/02/16 11:28:06;;;;;;;4.93;2.03;;;;;;;11.91;100.00;100381.16;5075499;28;20420;-79
2024/02/16 11:30:35;;;;;;;5.30;2.20;;;;;;;11.91;100.00;100379.22;5069674;28;20421;-78
2024/02/16 11:33:13;;;;;;;7.13;2.60;;;;;;;11.95;100.00;100375.97;5060601;28;20508;-78
2024/02/16 11:35:53;;;;;;;6.30;2.50;;;;;;;12.16;100.00;100369.06;5083123;27;20421;-78
2024/02/16 11:38:27;;;;;;;5.50;2.20;;;;;;;12.17;100.00;100359.75;5075168;28;20428;-78
2024/02/16 11:40:57;;;;;;;6.63;2.50;;;;;;;12.28;100.00;100365.88;5071380;28;21181;-78
2024/02/16 11:43:32;;;;;;;4.83;2.23;;;;;;;12.47;100.00;100367.72;5077569;28;20428;-78
2024/02/16 11:46:12;;;;;;;8.37;2.30;;;;;;;12.51;100.00;100366.84;5074897;28;20420;-78